sensor_id;sensor_type;location;lat;lon;timestamp;temperature;humidity
21580;DHT22;10951;59.656;9.666;2023-02-26T00:01:29;-2.80;61.40
21580;DHT22;10951;59.656;9.666;2023-02-26T00:04:00;-2.80;61.80
21580;DHT22;10951;59.656;9.666;2023-02-26T00:06:30;-2.90;61.60
21580;DHT22;10951;59.656;9.666;2023-02-26T00:08:57;-2.90;61.70
21580;DHT22;10951;59.656;9.666;2023-02-26T00:11:24;-2.90;62.00
21580;DHT22;10951;59.656;9.666;2023-02-26T00:13:52;-2.90;61.80
21580;DHT22;10951;59.656;9.666;2023-02-26T00:18:46;-3.00;62.90
21580;DHT22;10951;59.656;9.666;2023-02-26T00:21:17;-3.00;63.10
21580;DHT22;10951;59.656;9.666;2023-02-26T00:23:45;-3.00;63.60
21580;DHT22;10951;59.656;9.666;2023-02-26T00:26:12;-3.00;63.10
21580;DHT22;10951;59.656;9.666;2023-02-26T00:28:39;-2.90;63.20
21580;DHT22;10951;59.656;9.666;2023-02-26T00:31:07;-2.80;63.40
21580;DHT22;10951;59.656;9.666;2023-02-26T00:33:35;-2.70;63.20
21580;DHT22;10951;59.656;9.666;2023-02-26T00:41:32;-2.70;62.10
21580;DHT22;10951;59.656;9.666;2023-02-26T00:44:02;-2.70;62.50
21580;DHT22;10951;59.656;9.666;2023-02-26T00:50:23;-2.80;62.80
21580;DHT22;10951;59.656;9.666;2023-02-26T00:52:42;-2.80;63.00
21580;DHT22;10951;59.656;9.666;2023-02-26T00:55:11;-2.70;63.10
21580;DHT22;10951;59.656;9.666;2023-02-26T00:57:38;-2.50;61.70
21580;DHT22;10951;59.656;9.666;2023-02-26T01:00:06;-2.30;60.80
21580;DHT22;10951;59.656;9.666;2023-02-26T01:02:35;-2.20;61.30
21580;DHT22;10951;59.656;9.666;2023-02-26T01:05:03;-2.00;61.00
21580;DHT22;10951;59.656;9.666;2023-02-26T01:07:32;-1.90;60.50
21580;DHT22;10951;59.656;9.666;2023-02-26T01:10:03;-1.80;60.30
21580;DHT22;10951;59.656;9.666;2023-02-26T01:12:31;-1.70;59.00
21580;DHT22;10951;59.656;9.666;2023-02-26T01:14:58;-1.50;59.20
21580;DHT22;10951;59.656;9.666;2023-02-26T01:17:35;-1.50;58.50
21580;DHT22;10951;59.656;9.666;2023-02-26T01:20:18;-1.40;58.40
21580;DHT22;10951;59.656;9.666;2023-02-26T01:23:02;-1.30;58.00
21580;DHT22;10951;59.656;9.666;2023-02-26T01:25:38;-1.30;58.20
21580;DHT22;10951;59.656;9.666;2023-02-26T01:28:06;-1.30;57.90
21580;DHT22;10951;59.656;9.666;2023-02-26T01:30:34;-1.30;57.60
21580;DHT22;10951;59.656;9.666;2023-02-26T01:47:15;-1.10;56.60
21580;DHT22;10951;59.656;9.666;2023-02-26T01:49:44;-1.10;56.50
21580;DHT22;10951;59.656;9.666;2023-02-26T01:55:24;-1.00;56.40
21580;DHT22;10951;59.656;9.666;2023-02-26T01:57:55;-1.00;56.30
21580;DHT22;10951;59.656;9.666;2023-02-26T02:00:22;-1.00;56.30
21580;DHT22;10951;59.656;9.666;2023-02-26T02:02:52;-1.00;56.50
21580;DHT22;10951;59.656;9.666;2023-02-26T02:05:42;-1.00;56.50
21580;DHT22;10951;59.656;9.666;2023-02-26T02:08:12;-1.00;56.10
21580;DHT22;10951;59.656;9.666;2023-02-26T02:10:43;-1.00;56.10
21580;DHT22;10951;59.656;9.666;2023-02-26T02:22:14;-0.90;55.80
21580;DHT22;10951;59.656;9.666;2023-02-26T02:33:12;-1.00;55.90
21580;DHT22;10951;59.656;9.666;2023-02-26T02:35:49;-1.10;55.90
21580;DHT22;10951;59.656;9.666;2023-02-26T02:38:30;-1.10;56.10
21580;DHT22;10951;59.656;9.666;2023-02-26T02:41:09;-1.10;56.40
21580;DHT22;10951;59.656;9.666;2023-02-26T02:43:38;-1.20;56.40
21580;DHT22;10951;59.656;9.666;2023-02-26T02:46:14;-1.30;56.50
21580;DHT22;10951;59.656;9.666;2023-02-26T02:48:46;-1.20;56.60
21580;DHT22;10951;59.656;9.666;2023-02-26T02:51:28;-1.20;57.10
21580;DHT22;10951;59.656;9.666;2023-02-26T02:59:32;-1.20;56.30
21580;DHT22;10951;59.656;9.666;2023-02-26T03:04:40;-1.20;56.40
21580;DHT22;10951;59.656;9.666;2023-02-26T03:07:08;-1.30;56.50
21580;DHT22;10951;59.656;9.666;2023-02-26T03:09:35;-1.30;56.60
21580;DHT22;10951;59.656;9.666;2023-02-26T03:12:03;-1.30;56.50
21580;DHT22;10951;59.656;9.666;2023-02-26T03:14:30;-1.30;56.40
21580;DHT22;10951;59.656;9.666;2023-02-26T03:20:08;-1.40;57.00
21580;DHT22;10951;59.656;9.666;2023-02-26T03:23:08;-1.50;57.10
21580;DHT22;10951;59.656;9.666;2023-02-26T03:25:40;-1.60;57.10
21580;DHT22;10951;59.656;9.666;2023-02-26T03:28:53;-1.60;57.30
21580;DHT22;10951;59.656;9.666;2023-02-26T03:31:20;-1.60;57.40
21580;DHT22;10951;59.656;9.666;2023-02-26T03:36:27;-1.60;57.50
21580;DHT22;10951;59.656;9.666;2023-02-26T03:39:30;-1.70;57.30
21580;DHT22;10951;59.656;9.666;2023-02-26T03:45:03;-1.70;58.00
21580;DHT22;10951;59.656;9.666;2023-02-26T03:47:32;-1.70;57.90
21580;DHT22;10951;59.656;9.666;2023-02-26T03:50:14;-1.80;57.80
21580;DHT22;10951;59.656;9.666;2023-02-26T03:52:51;-1.90;58.20
21580;DHT22;10951;59.656;9.666;2023-02-26T03:55:34;-1.90;58.30
21580;DHT22;10951;59.656;9.666;2023-02-26T03:58:22;-2.00;58.30
21580;DHT22;10951;59.656;9.666;2023-02-26T04:01:21;-2.00;58.00
21580;DHT22;10951;59.656;9.666;2023-02-26T04:04:03;-2.10;58.00
21580;DHT22;10951;59.656;9.666;2023-02-26T04:06:32;-2.10;58.20
21580;DHT22;10951;59.656;9.666;2023-02-26T04:09:01;-2.10;58.20
21580;DHT22;10951;59.656;9.666;2023-02-26T04:11:31;-2.10;58.10
21580;DHT22;10951;59.656;9.666;2023-02-26T04:13:59;-2.10;58.10
21580;DHT22;10951;59.656;9.666;2023-02-26T04:16:28;-2.10;58.20
21580;DHT22;10951;59.656;9.666;2023-02-26T04:18:55;-2.10;58.30
21580;DHT22;10951;59.656;9.666;2023-02-26T04:21:22;-2.10;58.20
21580;DHT22;10951;59.656;9.666;2023-02-26T04:23:49;-2.10;58.30
21580;DHT22;10951;59.656;9.666;2023-02-26T04:26:16;-2.10;58.30
21580;DHT22;10951;59.656;9.666;2023-02-26T04:28:44;-2.20;58.50
21580;DHT22;10951;59.656;9.666;2023-02-26T04:31:11;-2.30;58.50
21580;DHT22;10951;59.656;9.666;2023-02-26T04:33:39;-2.30;58.60
21580;DHT22;10951;59.656;9.666;2023-02-26T04:36:07;-2.30;58.60
21580;DHT22;10951;59.656;9.666;2023-02-26T04:38:34;-2.30;58.70
21580;DHT22;10951;59.656;9.666;2023-02-26T04:41:03;-2.40;59.30
21580;DHT22;10951;59.656;9.666;2023-02-26T04:43:30;-2.40;58.90
21580;DHT22;10951;59.656;9.666;2023-02-26T04:46:19;-2.40;59.00
21580;DHT22;10951;59.656;9.666;2023-02-26T04:48:46;-2.50;59.10
21580;DHT22;10951;59.656;9.666;2023-02-26T04:51:14;-2.50;59.30
21580;DHT22;10951;59.656;9.666;2023-02-26T04:53:42;-2.50;59.30
21580;DHT22;10951;59.656;9.666;2023-02-26T04:56:09;-2.60;59.50
21580;DHT22;10951;59.656;9.666;2023-02-26T04:58:36;-2.60;59.40
21580;DHT22;10951;59.656;9.666;2023-02-26T05:01:08;-2.60;59.50
21580;DHT22;10951;59.656;9.666;2023-02-26T05:03:35;-2.70;59.60
21580;DHT22;10951;59.656;9.666;2023-02-26T05:06:02;-2.70;59.60
21580;DHT22;10951;59.656;9.666;2023-02-26T05:08:30;-2.70;59.60
21580;DHT22;10951;59.656;9.666;2023-02-26T05:10:57;-2.80;59.90
21580;DHT22;10951;59.656;9.666;2023-02-26T05:13:24;-2.80;60.10
21580;DHT22;10951;59.656;9.666;2023-02-26T05:15:52;-2.80;60.20
21580;DHT22;10951;59.656;9.666;2023-02-26T05:18:20;-2.90;59.90
21580;DHT22;10951;59.656;9.666;2023-02-26T05:20:52;-2.90;59.70
21580;DHT22;10951;59.656;9.666;2023-02-26T05:23:20;-2.90;59.60
21580;DHT22;10951;59.656;9.666;2023-02-26T05:25:47;-2.90;59.70
21580;DHT22;10951;59.656;9.666;2023-02-26T05:28:15;-2.90;59.70
21580;DHT22;10951;59.656;9.666;2023-02-26T05:30:43;-2.90;59.70
21580;DHT22;10951;59.656;9.666;2023-02-26T05:33:10;-3.00;59.80
21580;DHT22;10951;59.656;9.666;2023-02-26T05:35:37;-3.00;59.90
21580;DHT22;10951;59.656;9.666;2023-02-26T05:38:04;-3.00;60.00
21580;DHT22;10951;59.656;9.666;2023-02-26T05:40:31;-3.00;60.10
21580;DHT22;10951;59.656;9.666;2023-02-26T05:42:58;-3.00;60.20
21580;DHT22;10951;59.656;9.666;2023-02-26T05:45:25;-3.00;60.50
21580;DHT22;10951;59.656;9.666;2023-02-26T05:47:53;-3.10;60.90
21580;DHT22;10951;59.656;9.666;2023-02-26T05:50:19;-3.20;61.10
21580;DHT22;10951;59.656;9.666;2023-02-26T05:52:47;-3.20;61.30
21580;DHT22;10951;59.656;9.666;2023-02-26T05:55:14;-3.30;61.40
21580;DHT22;10951;59.656;9.666;2023-02-26T05:57:41;-3.30;61.60
21580;DHT22;10951;59.656;9.666;2023-02-26T06:00:09;-3.30;61.50
21580;DHT22;10951;59.656;9.666;2023-02-26T06:02:39;-3.30;62.10
21580;DHT22;10951;59.656;9.666;2023-02-26T06:05:07;-3.30;61.90
21580;DHT22;10951;59.656;9.666;2023-02-26T06:07:34;-3.30;62.00
21580;DHT22;10951;59.656;9.666;2023-02-26T06:10:01;-3.30;62.00
21580;DHT22;10951;59.656;9.666;2023-02-26T06:12:28;-3.30;61.80
21580;DHT22;10951;59.656;9.666;2023-02-26T06:14:55;-3.30;62.00
21580;DHT22;10951;59.656;9.666;2023-02-26T06:17:22;-3.30;61.90
21580;DHT22;10951;59.656;9.666;2023-02-26T06:19:49;-3.30;61.40
21580;DHT22;10951;59.656;9.666;2023-02-26T06:22:16;-3.30;62.10
21580;DHT22;10951;59.656;9.666;2023-02-26T06:24:43;-3.30;62.10
21580;DHT22;10951;59.656;9.666;2023-02-26T06:27:10;-3.30;61.80
21580;DHT22;10951;59.656;9.666;2023-02-26T06:29:37;-3.40;61.90
21580;DHT22;10951;59.656;9.666;2023-02-26T06:32:05;-3.40;62.00
21580;DHT22;10951;59.656;9.666;2023-02-26T06:34:32;-3.40;61.60
21580;DHT22;10951;59.656;9.666;2023-02-26T06:36:59;-3.40;61.70
21580;DHT22;10951;59.656;9.666;2023-02-26T06:39:26;-3.40;61.70
21580;DHT22;10951;59.656;9.666;2023-02-26T06:41:53;-3.30;61.40
21580;DHT22;10951;59.656;9.666;2023-02-26T06:44:20;-3.20;61.20
21580;DHT22;10951;59.656;9.666;2023-02-26T06:46:47;-3.20;61.00
21580;DHT22;10951;59.656;9.666;2023-02-26T06:49:14;-3.20;60.80
21580;DHT22;10951;59.656;9.666;2023-02-26T06:51:41;-3.10;61.00
21580;DHT22;10951;59.656;9.666;2023-02-26T06:54:08;-3.10;60.80
21580;DHT22;10951;59.656;9.666;2023-02-26T06:56:35;-3.20;60.70
21580;DHT22;10951;59.656;9.666;2023-02-26T06:59:02;-3.10;61.30
21580;DHT22;10951;59.656;9.666;2023-02-26T07:01:29;-3.10;61.50
21580;DHT22;10951;59.656;9.666;2023-02-26T07:03:57;-3.10;61.30
21580;DHT22;10951;59.656;9.666;2023-02-26T07:06:25;-3.10;60.90
21580;DHT22;10951;59.656;9.666;2023-02-26T07:09:04;-3.10;61.00
21580;DHT22;10951;59.656;9.666;2023-02-26T07:11:31;-3.10;60.90
21580;DHT22;10951;59.656;9.666;2023-02-26T07:13:58;-3.00;60.80
21580;DHT22;10951;59.656;9.666;2023-02-26T07:16:27;-3.00;61.00
21580;DHT22;10951;59.656;9.666;2023-02-26T07:18:54;-3.00;60.70
21580;DHT22;10951;59.656;9.666;2023-02-26T07:21:21;-3.00;60.90
21580;DHT22;10951;59.656;9.666;2023-02-26T07:23:48;-3.00;60.90
21580;DHT22;10951;59.656;9.666;2023-02-26T07:26:16;-3.00;60.90
21580;DHT22;10951;59.656;9.666;2023-02-26T07:28:43;-3.00;61.00
21580;DHT22;10951;59.656;9.666;2023-02-26T07:31:10;-3.00;61.10
21580;DHT22;10951;59.656;9.666;2023-02-26T07:33:37;-3.00;60.80
21580;DHT22;10951;59.656;9.666;2023-02-26T07:36:05;-3.00;61.00
21580;DHT22;10951;59.656;9.666;2023-02-26T07:38:32;-2.90;60.90
21580;DHT22;10951;59.656;9.666;2023-02-26T07:41:00;-2.90;60.90
21580;DHT22;10951;59.656;9.666;2023-02-26T07:43:27;-2.90;61.20
21580;DHT22;10951;59.656;9.666;2023-02-26T07:45:54;-2.80;61.50
21580;DHT22;10951;59.656;9.666;2023-02-26T07:48:21;-2.80;61.50
21580;DHT22;10951;59.656;9.666;2023-02-26T07:50:51;-2.70;61.40
21580;DHT22;10951;59.656;9.666;2023-02-26T07:53:19;-2.60;61.20
21580;DHT22;10951;59.656;9.666;2023-02-26T07:55:47;-2.50;61.40
21580;DHT22;10951;59.656;9.666;2023-02-26T07:58:14;-2.40;61.00
21580;DHT22;10951;59.656;9.666;2023-02-26T08:00:41;-2.30;61.00
21580;DHT22;10951;59.656;9.666;2023-02-26T08:03:08;-2.30;60.90
21580;DHT22;10951;59.656;9.666;2023-02-26T08:05:36;-2.30;61.20
21580;DHT22;10951;59.656;9.666;2023-02-26T08:08:03;-2.30;61.30
21580;DHT22;10951;59.656;9.666;2023-02-26T08:10:31;-2.40;61.30
21580;DHT22;10951;59.656;9.666;2023-02-26T08:12:58;-2.40;61.20
21580;DHT22;10951;59.656;9.666;2023-02-26T08:15:25;-2.50;61.40
21580;DHT22;10951;59.656;9.666;2023-02-26T08:17:52;-2.50;61.50
21580;DHT22;10951;59.656;9.666;2023-02-26T08:20:20;-2.50;60.60
21580;DHT22;10951;59.656;9.666;2023-02-26T08:22:47;-2.40;60.50
21580;DHT22;10951;59.656;9.666;2023-02-26T08:25:14;-2.40;60.50
21580;DHT22;10951;59.656;9.666;2023-02-26T08:27:41;-2.40;60.30
21580;DHT22;10951;59.656;9.666;2023-02-26T08:30:10;-2.40;60.70
21580;DHT22;10951;59.656;9.666;2023-02-26T08:32:37;-2.30;61.00
21580;DHT22;10951;59.656;9.666;2023-02-26T08:35:09;-2.10;60.70
21580;DHT22;10951;59.656;9.666;2023-02-26T08:37:37;-2.00;59.70
21580;DHT22;10951;59.656;9.666;2023-02-26T08:40:04;-1.90;59.80
21580;DHT22;10951;59.656;9.666;2023-02-26T08:42:32;-1.90;59.70
21580;DHT22;10951;59.656;9.666;2023-02-26T08:44:59;-1.80;59.30
21580;DHT22;10951;59.656;9.666;2023-02-26T08:47:26;-1.80;59.30
21580;DHT22;10951;59.656;9.666;2023-02-26T08:49:55;-1.70;59.90
21580;DHT22;10951;59.656;9.666;2023-02-26T08:52:22;-1.70;59.60
21580;DHT22;10951;59.656;9.666;2023-02-26T08:54:50;-1.80;59.50
21580;DHT22;10951;59.656;9.666;2023-02-26T08:57:17;-1.80;59.30
21580;DHT22;10951;59.656;9.666;2023-02-26T08:59:44;-1.80;59.80
21580;DHT22;10951;59.656;9.666;2023-02-26T09:02:12;-1.80;59.80
21580;DHT22;10951;59.656;9.666;2023-02-26T09:04:40;-1.80;60.10
21580;DHT22;10951;59.656;9.666;2023-02-26T09:07:08;-1.80;60.50
21580;DHT22;10951;59.656;9.666;2023-02-26T09:09:35;-1.70;60.40
21580;DHT22;10951;59.656;9.666;2023-02-26T09:12:03;-1.50;60.00
21580;DHT22;10951;59.656;9.666;2023-02-26T09:14:30;-1.40;59.30
21580;DHT22;10951;59.656;9.666;2023-02-26T09:16:57;-1.30;59.00
21580;DHT22;10951;59.656;9.666;2023-02-26T09:19:25;-1.20;58.90
21580;DHT22;10951;59.656;9.666;2023-02-26T09:21:52;-1.10;59.20
21580;DHT22;10951;59.656;9.666;2023-02-26T09:24:19;-1.00;58.40
21580;DHT22;10951;59.656;9.666;2023-02-26T09:26:46;-0.90;58.30
21580;DHT22;10951;59.656;9.666;2023-02-26T09:29:13;-0.80;58.30
21580;DHT22;10951;59.656;9.666;2023-02-26T09:31:41;-0.70;58.00
21580;DHT22;10951;59.656;9.666;2023-02-26T09:34:08;-0.50;57.50
21580;DHT22;10951;59.656;9.666;2023-02-26T09:36:37;-0.40;57.30
21580;DHT22;10951;59.656;9.666;2023-02-26T09:39:05;-0.20;57.30
21580;DHT22;10951;59.656;9.666;2023-02-26T09:41:41;-0.20;57.50
21580;DHT22;10951;59.656;9.666;2023-02-26T09:44:18;0.00;57.10
21580;DHT22;10951;59.656;9.666;2023-02-26T09:49:58;0.20;56.50
21580;DHT22;10951;59.656;9.666;2023-02-26T09:58:02;0.40;55.70
21580;DHT22;10951;59.656;9.666;2023-02-26T10:00:39;0.40;55.50
21580;DHT22;10951;59.656;9.666;2023-02-26T10:03:16;0.40;56.00
21580;DHT22;10951;59.656;9.666;2023-02-26T10:14:22;1.00;55.00
21580;DHT22;10951;59.656;9.666;2023-02-26T10:16:53;1.10;55.50
21580;DHT22;10951;59.656;9.666;2023-02-26T10:19:29;1.20;55.60
21580;DHT22;10951;59.656;9.666;2023-02-26T10:22:16;1.20;56.10
21580;DHT22;10951;59.656;9.666;2023-02-26T10:25:01;1.10;56.00
21580;DHT22;10951;59.656;9.666;2023-02-26T10:27:50;1.10;56.00
21580;DHT22;10951;59.656;9.666;2023-02-26T10:30:29;1.00;56.30
21580;DHT22;10951;59.656;9.666;2023-02-26T10:35:53;1.30;55.80
21580;DHT22;10951;59.656;9.666;2023-02-26T10:38:28;1.40;55.10
21580;DHT22;10951;59.656;9.666;2023-02-26T10:41:01;1.50;55.30
21580;DHT22;10951;59.656;9.666;2023-02-26T10:43:42;1.60;55.10
21580;DHT22;10951;59.656;9.666;2023-02-26T10:46:51;1.80;54.90
21580;DHT22;10951;59.656;9.666;2023-02-26T10:49:46;2.00;55.10
21580;DHT22;10951;59.656;9.666;2023-02-26T10:52:24;2.30;54.70
21580;DHT22;10951;59.656;9.666;2023-02-26T10:57:58;2.60;53.10
21580;DHT22;10951;59.656;9.666;2023-02-26T11:00:26;2.80;52.60
21580;DHT22;10951;59.656;9.666;2023-02-26T11:02:54;3.00;52.10
21580;DHT22;10951;59.656;9.666;2023-02-26T11:05:24;3.10;52.10
21580;DHT22;10951;59.656;9.666;2023-02-26T11:08:04;3.20;52.10
21580;DHT22;10951;59.656;9.666;2023-02-26T11:10:47;3.40;52.10
21580;DHT22;10951;59.656;9.666;2023-02-26T11:13:15;3.40;51.80
21580;DHT22;10951;59.656;9.666;2023-02-26T11:15:46;3.50;51.80
21580;DHT22;10951;59.656;9.666;2023-02-26T11:18:18;3.60;51.40
21580;DHT22;10951;59.656;9.666;2023-02-26T11:20:46;3.60;51.60
21580;DHT22;10951;59.656;9.666;2023-02-26T11:23:18;3.80;51.70
21580;DHT22;10951;59.656;9.666;2023-02-26T11:25:53;3.90;51.40
21580;DHT22;10951;59.656;9.666;2023-02-26T11:28:31;4.10;51.70
21580;DHT22;10951;59.656;9.666;2023-02-26T11:31:05;4.10;52.20
21580;DHT22;10951;59.656;9.666;2023-02-26T11:33:43;4.20;51.60
21580;DHT22;10951;59.656;9.666;2023-02-26T11:36:14;4.20;52.50
21580;DHT22;10951;59.656;9.666;2023-02-26T11:38:45;4.20;51.60
21580;DHT22;10951;59.656;9.666;2023-02-26T11:41:13;4.20;52.10
21580;DHT22;10951;59.656;9.666;2023-02-26T11:43:42;4.20;52.30
21580;DHT22;10951;59.656;9.666;2023-02-26T11:46:11;4.30;52.90
21580;DHT22;10951;59.656;9.666;2023-02-26T11:48:46;4.50;52.60
21580;DHT22;10951;59.656;9.666;2023-02-26T11:51:19;4.60;51.70
21580;DHT22;10951;59.656;9.666;2023-02-26T11:53:54;4.80;51.10
21580;DHT22;10951;59.656;9.666;2023-02-26T11:56:26;4.90;51.20
21580;DHT22;10951;59.656;9.666;2023-02-26T11:59:01;5.00;51.20
21580;DHT22;10951;59.656;9.666;2023-02-26T12:04:45;5.00;51.10
21580;DHT22;10951;59.656;9.666;2023-02-26T12:10:37;4.70;50.50
21580;DHT22;10951;59.656;9.666;2023-02-26T12:13:37;4.50;51.10
21580;DHT22;10951;59.656;9.666;2023-02-26T12:16:17;4.50;50.80
21580;DHT22;10951;59.656;9.666;2023-02-26T12:19:00;4.60;51.00
21580;DHT22;10951;59.656;9.666;2023-02-26T12:21:56;4.70;50.80
21580;DHT22;10951;59.656;9.666;2023-02-26T12:27:41;5.10;50.70
21580;DHT22;10951;59.656;9.666;2023-02-26T12:39:01;5.60;50.20
21580;DHT22;10951;59.656;9.666;2023-02-26T12:41:51;5.60;50.10
21580;DHT22;10951;59.656;9.666;2023-02-26T12:55:22;5.70;49.70
21580;DHT22;10951;59.656;9.666;2023-02-26T13:17:23;7.00;48.70
21580;DHT22;10951;59.656;9.666;2023-02-26T13:19:57;6.80;49.60
21580;DHT22;10951;59.656;9.666;2023-02-26T13:22:27;6.70;50.10
21580;DHT22;10951;59.656;9.666;2023-02-26T13:25:12;6.50;50.20
21580;DHT22;10951;59.656;9.666;2023-02-26T13:27:42;6.40;50.70
21580;DHT22;10951;59.656;9.666;2023-02-26T13:30:33;6.20;51.00
21580;DHT22;10951;59.656;9.666;2023-02-26T13:33:01;6.10;51.70
21580;DHT22;10951;59.656;9.666;2023-02-26T13:35:33;6.00;52.10
21580;DHT22;10951;59.656;9.666;2023-02-26T13:46:27;6.20;51.80
21580;DHT22;10951;59.656;9.666;2023-02-26T13:49:21;6.30;50.00
21580;DHT22;10951;59.656;9.666;2023-02-26T13:51:52;6.30;49.90
21580;DHT22;10951;59.656;9.666;2023-02-26T14:04:59;6.60;50.00
21580;DHT22;10951;59.656;9.666;2023-02-26T14:07:47;6.70;50.00
21580;DHT22;10951;59.656;9.666;2023-02-26T14:10:28;6.60;50.20
21580;DHT22;10951;59.656;9.666;2023-02-26T14:13:15;6.50;51.00
21580;DHT22;10951;59.656;9.666;2023-02-26T14:18:35;6.40;51.30
21580;DHT22;10951;59.656;9.666;2023-02-26T14:24:43;6.50;50.70
21580;DHT22;10951;59.656;9.666;2023-02-26T14:32:49;6.60;49.90
21580;DHT22;10951;59.656;9.666;2023-02-26T14:35:27;6.50;50.70
21580;DHT22;10951;59.656;9.666;2023-02-26T14:37:56;6.40;52.00
21580;DHT22;10951;59.656;9.666;2023-02-26T14:40:25;6.30;52.00
21580;DHT22;10951;59.656;9.666;2023-02-26T14:42:59;6.20;51.70
21580;DHT22;10951;59.656;9.666;2023-02-26T14:45:33;6.20;50.90
21580;DHT22;10951;59.656;9.666;2023-02-26T14:48:04;6.30;50.30
21580;DHT22;10951;59.656;9.666;2023-02-26T14:56:16;6.40;51.60
21580;DHT22;10951;59.656;9.666;2023-02-26T15:19:03;5.90;54.50
21580;DHT22;10951;59.656;9.666;2023-02-26T15:24:12;5.90;52.50
21580;DHT22;10951;59.656;9.666;2023-02-26T15:26:47;5.90;54.50
21580;DHT22;10951;59.656;9.666;2023-02-26T15:29:15;5.90;55.50
21580;DHT22;10951;59.656;9.666;2023-02-26T15:31:46;5.80;55.70
21580;DHT22;10951;59.656;9.666;2023-02-26T15:34:18;5.80;54.40
21580;DHT22;10951;59.656;9.666;2023-02-26T15:36:49;5.70;55.20
21580;DHT22;10951;59.656;9.666;2023-02-26T15:39:21;5.70;55.90
21580;DHT22;10951;59.656;9.666;2023-02-26T15:41:50;5.60;56.20
21580;DHT22;10951;59.656;9.666;2023-02-26T15:44:23;5.50;56.70
21580;DHT22;10951;59.656;9.666;2023-02-26T15:46:55;5.40;56.50
21580;DHT22;10951;59.656;9.666;2023-02-26T15:49:24;5.40;56.30
21580;DHT22;10951;59.656;9.666;2023-02-26T15:51:52;5.30;56.80
21580;DHT22;10951;59.656;9.666;2023-02-26T15:54:22;5.10;56.10
21580;DHT22;10951;59.656;9.666;2023-02-26T15:56:49;5.00;56.30
21580;DHT22;10951;59.656;9.666;2023-02-26T15:59:20;4.90;57.00
21580;DHT22;10951;59.656;9.666;2023-02-26T16:01:48;4.80;57.50
21580;DHT22;10951;59.656;9.666;2023-02-26T16:04:17;4.70;57.00
21580;DHT22;10951;59.656;9.666;2023-02-26T16:06:56;4.70;56.80
21580;DHT22;10951;59.656;9.666;2023-02-26T16:09:32;4.50;57.60
21580;DHT22;10951;59.656;9.666;2023-02-26T16:12:14;4.50;58.00
21580;DHT22;10951;59.656;9.666;2023-02-26T16:14:51;4.40;58.50
21580;DHT22;10951;59.656;9.666;2023-02-26T16:17:27;4.30;59.00
21580;DHT22;10951;59.656;9.666;2023-02-26T16:19:58;4.20;59.20
21580;DHT22;10951;59.656;9.666;2023-02-26T16:22:26;4.10;60.20
21580;DHT22;10951;59.656;9.666;2023-02-26T16:25:49;4.00;59.50
21580;DHT22;10951;59.656;9.666;2023-02-26T16:28:00;4.00;59.30
21580;DHT22;10951;59.656;9.666;2023-02-26T16:30:32;3.90;58.90
21580;DHT22;10951;59.656;9.666;2023-02-26T16:33:02;3.80;58.90
21580;DHT22;10951;59.656;9.666;2023-02-26T16:35:37;3.80;59.10
21580;DHT22;10951;59.656;9.666;2023-02-26T16:38:31;3.70;58.80
21580;DHT22;10951;59.656;9.666;2023-02-26T16:41:05;3.70;58.60
21580;DHT22;10951;59.656;9.666;2023-02-26T16:46:13;3.50;58.70
21580;DHT22;10951;59.656;9.666;2023-02-26T16:51:19;3.40;58.90
21580;DHT22;10951;59.656;9.666;2023-02-26T16:53:59;3.30;59.40
21580;DHT22;10951;59.656;9.666;2023-02-26T16:56:30;3.20;59.80
21580;DHT22;10951;59.656;9.666;2023-02-26T16:59:13;3.10;59.50
21580;DHT22;10951;59.656;9.666;2023-02-26T17:02:04;3.10;59.10
21580;DHT22;10951;59.656;9.666;2023-02-26T17:04:36;3.10;58.90
21580;DHT22;10951;59.656;9.666;2023-02-26T17:07:29;2.90;59.20
21580;DHT22;10951;59.656;9.666;2023-02-26T17:10:04;2.90;59.40
21580;DHT22;10951;59.656;9.666;2023-02-26T17:12:51;2.90;59.60
21580;DHT22;10951;59.656;9.666;2023-02-26T17:15:30;2.90;59.70
21580;DHT22;10951;59.656;9.666;2023-02-26T17:17:58;2.80;60.50
21580;DHT22;10951;59.656;9.666;2023-02-26T17:20:27;2.70;60.90
21580;DHT22;10951;59.656;9.666;2023-02-26T17:22:56;2.70;61.70
21580;DHT22;10951;59.656;9.666;2023-02-26T17:25:25;2.60;61.70
21580;DHT22;10951;59.656;9.666;2023-02-26T17:27:55;2.60;62.40
21580;DHT22;10951;59.656;9.666;2023-02-26T17:30:23;2.60;62.20
21580;DHT22;10951;59.656;9.666;2023-02-26T17:32:51;2.50;62.60
21580;DHT22;10951;59.656;9.666;2023-02-26T17:35:18;2.40;62.20
21580;DHT22;10951;59.656;9.666;2023-02-26T17:37:45;2.40;62.20
21580;DHT22;10951;59.656;9.666;2023-02-26T17:40:26;2.30;62.80
21580;DHT22;10951;59.656;9.666;2023-02-26T17:42:53;2.40;62.50
21580;DHT22;10951;59.656;9.666;2023-02-26T17:45:20;2.40;62.10
21580;DHT22;10951;59.656;9.666;2023-02-26T17:47:47;2.40;61.90
21580;DHT22;10951;59.656;9.666;2023-02-26T17:50:50;2.40;62.00
21580;DHT22;10951;59.656;9.666;2023-02-26T17:53:19;2.30;62.20
21580;DHT22;10951;59.656;9.666;2023-02-26T17:55:46;2.20;62.90
21580;DHT22;10951;59.656;9.666;2023-02-26T17:58:33;2.10;63.70
21580;DHT22;10951;59.656;9.666;2023-02-26T18:01:01;2.10;63.60
21580;DHT22;10951;59.656;9.666;2023-02-26T18:03:30;2.00;63.70
21580;DHT22;10951;59.656;9.666;2023-02-26T18:05:58;2.00;63.40
21580;DHT22;10951;59.656;9.666;2023-02-26T18:08:30;2.00;63.30
21580;DHT22;10951;59.656;9.666;2023-02-26T18:10:59;1.90;63.20
21580;DHT22;10951;59.656;9.666;2023-02-26T18:13:27;1.90;64.00
21580;DHT22;10951;59.656;9.666;2023-02-26T18:15:55;1.90;63.90
21580;DHT22;10951;59.656;9.666;2023-02-26T18:18:25;1.80;63.80
21580;DHT22;10951;59.656;9.666;2023-02-26T18:20:52;1.80;64.00
21580;DHT22;10951;59.656;9.666;2023-02-26T18:23:20;1.80;63.90
21580;DHT22;10951;59.656;9.666;2023-02-26T18:25:48;1.70;63.70
21580;DHT22;10951;59.656;9.666;2023-02-26T18:28:22;1.70;63.50
21580;DHT22;10951;59.656;9.666;2023-02-26T18:30:50;1.60;63.70
21580;DHT22;10951;59.656;9.666;2023-02-26T18:33:19;1.60;63.80
21580;DHT22;10951;59.656;9.666;2023-02-26T18:35:48;1.50;64.00
21580;DHT22;10951;59.656;9.666;2023-02-26T18:38:22;1.50;64.50
21580;DHT22;10951;59.656;9.666;2023-02-26T18:40:50;1.40;64.70
21580;DHT22;10951;59.656;9.666;2023-02-26T18:43:18;1.40;64.70
21580;DHT22;10951;59.656;9.666;2023-02-26T18:45:47;1.30;64.90
21580;DHT22;10951;59.656;9.666;2023-02-26T18:48:18;1.30;65.70
21580;DHT22;10951;59.656;9.666;2023-02-26T18:50:46;1.30;65.70
21580;DHT22;10951;59.656;9.666;2023-02-26T18:53:15;1.30;65.50
21580;DHT22;10951;59.656;9.666;2023-02-26T18:55:43;1.30;65.50
21580;DHT22;10951;59.656;9.666;2023-02-26T18:58:10;1.30;65.60
21580;DHT22;10951;59.656;9.666;2023-02-26T19:00:37;1.30;65.60
21580;DHT22;10951;59.656;9.666;2023-02-26T19:03:05;1.20;65.30
21580;DHT22;10951;59.656;9.666;2023-02-26T19:05:32;1.30;65.50
21580;DHT22;10951;59.656;9.666;2023-02-26T19:07:59;1.20;65.50
21580;DHT22;10951;59.656;9.666;2023-02-26T19:10:27;1.10;65.40
21580;DHT22;10951;59.656;9.666;2023-02-26T19:12:57;1.10;65.40
21580;DHT22;10951;59.656;9.666;2023-02-26T19:15:24;1.10;65.60
21580;DHT22;10951;59.656;9.666;2023-02-26T19:17:52;1.10;65.90
21580;DHT22;10951;59.656;9.666;2023-02-26T19:20:19;1.10;66.10
21580;DHT22;10951;59.656;9.666;2023-02-26T19:22:45;1.10;66.40
21580;DHT22;10951;59.656;9.666;2023-02-26T19:25:13;1.00;66.70